Time;durP1;ratioP1;P1;durP2;ratioP2;P2;SDS_P1;SDS_P2;PMS_P1;PMS_P2;Temp;Humidity;BMP_temperature;BMP_pressure;BME280_temperature;BME280_humidity;BME280_pressure;Samples;Min_cycle;Max_cycle;Signal;HPM_P1;HPM_P2
2023/07/09 00:00:59;;;;;;;6.83;4.03;;;;;;;20.93;70.88;97197.41;5032654;28;20211;-83
2023/07/09 00:04:20;;;;;;;5.73;3.30;;;;;;;21.14;70.02;97210.59;5020031;28;20240;-83
2023/07/09 00:07:41;;;;;;;5.20;3.60;;;;;;;21.08;70.19;97215.53;5047758;28;20202;-83
2023/07/09 00:11:02;;;;;;;5.50;3.70;;;;;;;21.17;69.67;97220.84;5013860;28;20668;-83
2023/07/09 00:14:25;;;;;;;4.90;3.50;;;;;;;21.19;69.66;97211.00;5014138;28;21234;-83
2023/07/09 00:17:50;;;;;;;4.37;3.33;;;;;;;21.04;70.81;97199.97;5046824;28;20207;-84
2023/07/09 00:21:13;;;;;;;4.20;3.40;;;;;;;21.11;70.83;97210.81;5047318;28;20563;-83
2023/07/09 00:24:35;;;;;;;5.13;4.13;;;;;;;21.19;68.39;97220.69;5047081;28;20243;-80
2023/07/09 00:27:56;;;;;;;8.33;3.93;;;;;;;21.24;69.30;97219.38;5032737;28;20210;-83
2023/07/09 00:31:18;;;;;;;5.23;3.13;;;;;;;21.24;68.45;97215.88;5047233;28;20207;-83
2023/07/09 00:34:40;;;;;;;6.17;3.53;;;;;;;21.19;67.53;97199.63;5047087;28;20196;-85
2023/07/09 00:38:01;;;;;;;6.13;3.60;;;;;;;21.23;66.49;97201.03;5031823;28;20196;-79
2023/07/09 00:41:25;;;;;;;4.13;3.37;;;;;;;21.50;65.34;97233.75;5047641;28;20203;-83
2023/07/09 00:44:52;;;;;;;6.67;4.07;;;;;;;21.45;65.78;97232.50;5029482;28;20232;-84
2023/07/09 00:48:17;;;;;;;6.90;3.90;;;;;;;21.50;66.16;97230.28;5031489;28;20199;-82
2023/07/09 00:51:41;;;;;;;5.47;3.83;;;;;;;21.56;65.69;97232.38;5029120;28;20205;-84
2023/07/09 00:55:05;;;;;;;8.00;3.80;;;;;;;21.46;66.41;97229.72;5028965;28;20204;-81
2023/07/09 00:58:27;;;;;;;7.73;4.00;;;;;;;21.52;65.28;97233.63;5012730;28;20209;-85
2023/07/09 01:01:49;;;;;;;6.10;4.00;;;;;;;21.43;66.07;97229.16;5047248;28;20276;-84
2023/07/09 01:05:11;;;;;;;4.60;3.60;;;;;;;21.42;66.43;97232.75;5014818;28;20763;-84
2023/07/09 01:08:32;;;;;;;6.60;3.60;;;;;;;21.11;67.61;97236.31;5046548;28;20225;-84
2023/07/09 01:11:56;;;;;;;6.67;3.57;;;;;;;21.16;68.32;97242.91;5028250;28;20198;-84
2023/07/09 01:15:16;;;;;;;6.10;3.70;;;;;;;21.06;69.08;97240.19;5028822;28;20194;-85
2023/07/09 01:18:39;;;;;;;8.83;3.43;;;;;;;21.03;69.25;97242.25;5028739;28;20253;-85
2023/07/09 01:22:01;;;;;;;4.27;3.60;;;;;;;20.86;69.76;97248.06;5028098;28;20202;-80
2023/07/09 01:24:55;;;;;;;5.77;3.63;;;;;;;20.78;70.25;97251.34;5028713;28;20236;-80
2023/07/09 01:28:20;;;;;;;4.80;3.50;;;;;;;20.61;70.68;97244.00;5029093;28;20203;-82
2023/07/09 01:31:42;;;;;;;4.23;3.13;;;;;;;20.73;70.49;97244.78;5012671;28;20214;-85
2023/07/09 01:35:11;;;;;;;5.67;4.00;;;;;;;20.59;68.25;97240.66;5046086;28;20206;-84
2023/07/09 01:38:34;;;;;;;5.97;3.17;;;;;;;20.79;68.99;97250.34;5028239;28;20206;-84
2023/07/09 01:41:56;;;;;;;5.47;3.50;;;;;;;20.71;68.73;97239.63;5046204;28;20710;-83
2023/07/09 01:45:20;;;;;;;6.43;3.30;;;;;;;20.68;69.49;97247.81;5012025;28;20621;-83
2023/07/09 01:48:42;;;;;;;5.00;3.60;;;;;;;20.57;70.21;97253.09;5046227;28;20212;-85
2023/07/09 01:52:03;;;;;;;4.10;3.33;;;;;;;20.43;70.57;97256.03;5011249;28;20201;-83
2023/07/09 01:55:24;;;;;;;5.00;3.57;;;;;;;20.22;71.19;97257.78;5046594;28;20199;-79
2023/07/09 01:58:47;;;;;;;5.67;3.43;;;;;;;20.06;71.80;97262.56;5028901;28;20198;-83
2023/07/09 02:02:08;;;;;;;6.23;3.20;;;;;;;20.15;71.96;97262.66;5017498;28;20920;-84
2023/07/09 02:05:28;;;;;;;4.00;3.30;;;;;;;20.12;72.17;97260.28;5043782;28;20230;-84
2023/07/09 02:08:49;;;;;;;5.07;3.50;;;;;;;20.35;71.06;97268.13;5044786;28;20674;-83
2023/07/09 02:12:13;;;;;;;4.67;3.00;;;;;;;20.13;71.55;97261.13;5012050;28;20203;-83
2023/07/09 02:15:32;;;;;;;4.00;3.47;;;;;;;20.23;71.72;97267.34;5045477;28;20197;-82
2023/07/09 02:18:53;;;;;;;6.17;4.00;;;;;;;20.02;71.88;97261.13;5044962;28;20198;-83
2023/07/09 02:22:13;;;;;;;7.67;3.40;;;;;;;20.02;71.93;97271.66;5029841;28;20677;-83
2023/07/09 02:25:34;;;;;;;8.20;3.57;;;;;;;19.68;73.71;97278.72;5028298;28;20367;-80
2023/07/09 02:28:55;;;;;;;8.87;3.90;;;;;;;19.59;73.77;97283.88;5045800;28;20204;-80
2023/07/09 02:32:16;;;;;;;6.07;3.93;;;;;;;19.37;74.78;97282.91;5045722;28;20667;-83
2023/07/09 02:35:36;;;;;;;4.53;3.47;;;;;;;19.43;74.16;97279.81;5043853;28;20229;-83
2023/07/09 02:38:57;;;;;;;6.97;3.90;;;;;;;19.69;73.42;97279.56;5029900;28;20202;-83
2023/07/09 02:42:18;;;;;;;5.63;3.23;;;;;;;19.65;72.72;97283.41;5011275;28;20198;-84
2023/07/09 02:45:39;;;;;;;6.63;3.73;;;;;;;19.56;72.92;97289.38;5045364;28;20763;-84
2023/07/09 02:49:02;;;;;;;3.97;3.50;;;;;;;19.70;72.59;97287.31;5015651;28;20202;-84
2023/07/09 02:52:24;;;;;;;7.73;3.70;;;;;;;19.80;71.72;97287.47;5044692;28;20220;-83
2023/07/09 02:55:47;;;;;;;5.63;3.87;;;;;;;19.92;71.86;97291.75;5068733;28;20193;-82
2023/07/09 02:59:08;;;;;;;16.40;4.20;;;;;;;19.98;72.38;97293.91;5051740;28;20201;-81
2023/07/09 03:02:29;;;;;;;7.40;4.00;;;;;;;19.91;71.81;97303.22;5051234;28;20214;-81
2023/07/09 03:05:51;;;;;;;10.70;4.00;;;;;;;19.80;72.98;97296.19;5034309;28;20275;-83
2023/07/09 03:09:13;;;;;;;7.57;3.97;;;;;;;19.76;71.50;97301.81;5020024;28;20197;-83
2023/07/09 03:12:35;;;;;;;8.63;4.13;;;;;;;19.40;73.04;97298.44;5034482;28;20217;-82
2023/07/09 03:15:57;;;;;;;7.67;4.27;;;;;;;19.41;72.95;97299.28;5051439;28;20204;-81
2023/07/09 03:19:19;;;;;;;7.40;3.87;;;;;;;19.16;72.13;97300.28;5050937;28;20256;-84
2023/07/09 03:22:44;;;;;;;8.10;3.90;;;;;;;19.61;71.22;97303.00;5033808;28;20751;-83
2023/07/09 03:26:05;;;;;;;6.27;4.07;;;;;;;19.79;70.59;97306.81;5050702;28;20236;-83
2023/07/09 03:29:26;;;;;;;6.70;3.90;;;;;;;19.94;69.99;97301.19;5036839;28;20202;-84
2023/07/09 03:32:46;;;;;;;5.23;3.67;;;;;;;20.04;70.50;97307.41;5050584;28;20201;-84
2023/07/09 03:36:09;;;;;;;7.07;4.10;;;;;;;20.04;70.38;97309.19;5033545;28;20282;-83
2023/07/09 03:39:31;;;;;;;7.23;4.70;;;;;;;20.01;70.97;97312.06;5053013;28;20339;-80
2023/07/09 03:42:52;;;;;;;7.60;4.30;;;;;;;20.11;71.17;97318.28;5069188;28;20190;-82
2023/07/09 03:46:14;;;;;;;6.77;3.80;;;;;;;20.15;69.72;97309.19;5052724;28;20241;-81
2023/07/09 03:49:35;;;;;;;4.70;3.87;;;;;;;20.28;69.09;97315.97;5052750;28;20222;-80
2023/07/09 03:52:57;;;;;;;4.70;3.53;;;;;;;20.76;68.14;97324.34;5029942;28;20221;-84
2023/07/09 03:56:19;;;;;;;7.93;3.97;;;;;;;21.29;66.22;97319.09;5030605;28;20198;-83
2023/07/09 03:59:40;;;;;;;8.20;3.47;;;;;;;22.35;63.02;97329.16;5047344;28;20629;-85
2023/07/09 04:03:02;;;;;;;5.13;3.60;;;;;;;22.22;62.22;97310.09;5038817;28;20214;-84
2023/07/09 04:06:24;;;;;;;4.53;4.00;;;;;;;23.08;59.97;97323.41;5047817;28;20229;-83
2023/07/09 04:09:45;;;;;;;5.77;3.10;;;;;;;23.10;57.86;97330.22;5047851;28;20749;-85
2023/07/09 04:13:06;;;;;;;8.37;3.83;;;;;;;23.52;57.05;97329.91;5030725;28;20252;-84
2023/07/09 04:16:27;;;;;;;4.87;3.53;;;;;;;23.40;56.70;97329.25;5033782;28;20244;-80
2023/07/09 04:19:47;;;;;;;5.63;3.70;;;;;;;23.60;56.42;97325.56;5050278;28;20282;-83
2023/07/09 04:23:10;;;;;;;6.83;4.07;;;;;;;23.48;55.83;97321.44;5047678;28;20210;-83
2023/07/09 04:26:30;;;;;;;7.57;3.70;;;;;;;23.51;55.63;97317.69;5031028;28;20655;-82
2023/07/09 04:29:52;;;;;;;8.50;3.27;;;;;;;23.44;56.02;97327.97;5032776;28;20657;-86
2023/07/09 04:33:13;;;;;;;6.90;4.27;;;;;;;23.69;55.83;97324.72;5030421;28;20574;-85
2023/07/09 04:36:35;;;;;;;7.03;4.20;;;;;;;23.85;55.56;97332.03;5047985;28;20198;-83
2023/07/09 04:39:56;;;;;;;6.87;3.93;;;;;;;23.88;54.51;97321.19;5013128;28;20196;-84
2023/07/09 04:43:17;;;;;;;5.13;3.50;;;;;;;24.60;52.22;97324.72;5048117;28;20214;-84
2023/07/09 04:46:39;;;;;;;6.03;3.77;;;;;;;24.76;52.60;97338.16;5031692;28;20679;-84
2023/07/09 04:50:02;;;;;;;7.00;3.40;;;;;;;24.00;53.36;97330.59;5047682;28;20196;-83
2023/07/09 04:53:24;;;;;;;5.97;3.43;;;;;;;24.70;52.42;97330.78;5047724;28;20565;-81
2023/07/09 04:56:44;;;;;;;4.47;3.27;;;;;;;24.76;51.79;97339.97;5028896;28;20208;-84
2023/07/09 05:00:08;;;;;;;3.40;3.00;;;;;;;24.42;50.42;97337.09;5030157;28;20208;-84
2023/07/09 05:03:29;;;;;;;3.27;2.97;;;;;;;24.73;50.70;97327.84;5029734;28;20965;-82
2023/07/09 05:06:50;;;;;;;4.23;2.90;;;;;;;25.03;49.89;97331.97;5034557;28;20304;-82
2023/07/09 05:10:10;;;;;;;7.13;3.77;;;;;;;25.73;49.46;97342.47;5066000;28;20245;-82
2023/07/09 05:13:32;;;;;;;4.07;3.23;;;;;;;26.18;48.35;97338.75;5048577;28;20227;-78
2023/07/09 05:16:54;;;;;;;4.37;3.27;;;;;;;26.07;48.13;97339.03;5051511;28;20224;-84
2023/07/09 05:20:15;;;;;;;8.13;3.83;;;;;;;26.21;48.35;97335.78;5048450;28;20197;-82
2023/07/09 05:23:38;;;;;;;5.33;3.73;;;;;;;26.58;47.95;97342.38;5050364;28;20197;-83
2023/07/09 05:27:00;;;;;;;4.07;2.87;;;;;;;26.53;47.98;97333.25;5066343;28;20201;-81
2023/07/09 05:30:21;;;;;;;7.33;3.83;;;;;;;26.42;48.39;97339.69;5045942;28;20220;-85
2023/07/09 05:33:43;;;;;;;5.57;3.30;;;;;;;26.41;47.40;97339.84;5041100;28;20205;-82
2023/07/09 05:37:05;;;;;;;4.93;2.80;;;;;;;25.92;48.22;97336.13;5030502;28;20198;-82
2023/07/09 05:40:27;;;;;;;7.83;4.13;;;;;;;26.18;49.33;97339.59;5037695;28;20205;-82
2023/07/09 05:43:48;;;;;;;5.40;3.60;;;;;;;26.52;46.54;97329.75;5047834;28;20201;-83
2023/07/09 05:47:09;;;;;;;31.47;15.30;;;;;;;25.84;46.96;97339.53;5048690;28;20197;-82
2023/07/09 05:50:30;;;;;;;42.93;20.97;;;;;;;25.56;48.38;97339.84;5050258;28;20211;-83
2023/07/09 05:53:50;;;;;;;28.17;13.97;;;;;;;25.41;47.86;97346.72;5066756;28;20539;-84
2023/07/09 05:57:12;;;;;;;17.60;8.57;;;;;;;25.40;48.30;97345.03;5065660;28;20238;-84
2023/07/09 06:00:37;;;;;;;17.93;9.37;;;;;;;25.42;48.16;97351.03;5048252;28;20209;-84
2023/07/09 06:03:58;;;;;;;7.10;4.53;;;;;;;25.53;48.13;97348.94;5033489;28;20255;-85
2023/07/09 06:07:21;;;;;;;8.47;5.13;;;;;;;26.12;47.58;97332.25;5048806;28;20198;-81
2023/07/09 06:10:43;;;;;;;5.70;3.60;;;;;;;25.86;46.72;97342.06;5025768;28;20220;-81
2023/07/09 06:14:04;;;;;;;3.83;3.07;;;;;;;25.73;46.87;97342.47;5046991;28;20225;-78
2023/07/09 06:17:26;;;;;;;4.27;3.10;;;;;;;25.89;46.61;97319.66;5046681;28;20199;-82
2023/07/09 06:20:47;;;;;;;3.30;2.73;;;;;;;26.26;45.16;97344.09;5029747;28;20705;-84
2023/07/09 06:24:10;;;;;;;4.33;3.10;;;;;;;25.76;45.73;97302.34;5026453;28;20306;-84
2023/07/09 06:27:31;;;;;;;6.23;2.60;;;;;;;26.05;45.24;97335.69;5013265;28;20634;-84
2023/07/09 06:30:53;;;;;;;7.20;3.07;;;;;;;25.82;46.20;97341.53;5020479;28;20742;-79
2023/07/09 06:34:14;;;;;;;5.03;2.90;;;;;;;26.03;46.48;97342.97;5009231;28;20214;-82
2023/07/09 06:37:36;;;;;;;3.10;2.80;;;;;;;25.31;47.22;97352.06;5049799;28;20320;-81
2023/07/09 06:40:57;;;;;;;5.40;2.93;;;;;;;25.23;47.03;97343.22;5064028;28;20695;-81
2023/07/09 06:44:20;;;;;;;5.33;2.80;;;;;;;25.49;47.59;97347.59;5046954;28;20219;-81
2023/07/09 06:47:40;;;;;;;5.80;2.77;;;;;;;25.55;48.61;97340.88;5047466;28;20204;-79
2023/07/09 06:51:01;;;;;;;4.67;2.90;;;;;;;25.79;47.43;97319.78;5046795;28;20685;-81
2023/07/09 06:54:23;;;;;;;13.03;3.17;;;;;;;25.88;45.15;97340.09;5064539;28;20204;-82
2023/07/09 06:57:44;;;;;;;6.23;3.03;;;;;;;25.90;45.07;97338.09;5041010;28;20266;-81
2023/07/09 07:01:05;;;;;;;4.40;2.97;;;;;;;26.03;45.06;97349.09;5028289;28;20213;-77
2023/07/09 07:04:25;;;;;;;4.87;2.97;;;;;;;26.16;44.29;97340.72;5045430;28;20229;-81
2023/07/09 07:07:48;;;;;;;3.97;2.70;;;;;;;26.14;44.11;97334.75;5044714;28;20198;-81
2023/07/09 07:11:10;;;;;;;5.17;3.13;;;;;;;26.14;45.62;97332.09;5029095;28;20198;-84
2023/07/09 07:14:33;;;;;;;3.60;3.10;;;;;;;25.96;45.43;97339.28;5044699;28;20357;-80
2023/07/09 07:17:55;;;;;;;5.20;3.37;;;;;;;26.13;44.52;97339.22;5062486;28;20202;-80
2023/07/09 07:21:16;;;;;;;3.40;2.80;;;;;;;25.71;45.56;97328.53;5046371;28;20263;-81
2023/07/09 07:24:37;;;;;;;6.90;2.77;;;;;;;25.24;45.88;97339.59;5032399;28;20234;-83
2023/07/09 07:27:58;;;;;;;4.33;2.90;;;;;;;24.93;45.86;97315.31;5063644;28;20632;-81
2023/07/09 07:31:21;;;;;;;4.20;2.90;;;;;;;24.83;45.65;97330.44;5046769;28;20211;-82
2023/07/09 07:34:42;;;;;;;3.03;2.30;;;;;;;24.99;47.05;97330.59;5044815;28;20274;-80
2023/07/09 07:38:05;;;;;;;3.47;2.93;;;;;;;24.98;47.76;97320.97;5048116;28;20211;-82
2023/07/09 07:41:26;;;;;;;2.90;2.30;;;;;;;25.01;46.49;97324.16;5047625;28;20238;-80
2023/07/09 07:44:47;;;;;;;3.17;2.47;;;;;;;25.56;46.09;97343.34;5056681;28;20681;-76
2023/07/09 07:48:11;;;;;;;5.50;3.57;;;;;;;25.66;44.64;97336.13;5052130;28;20683;-80
2023/07/09 07:51:33;;;;;;;5.43;3.17;;;;;;;25.93;44.20;97315.69;5032470;28;20288;-81
2023/07/09 07:54:54;;;;;;;4.30;3.07;;;;;;;26.24;43.19;97330.16;5046957;28;20209;-80
2023/07/09 07:58:17;;;;;;;3.77;3.00;;;;;;;26.62;43.70;97324.31;5040276;28;20198;-80
2023/07/09 08:01:38;;;;;;;7.73;3.00;;;;;;;26.18;42.90;97321.00;5053324;28;20202;-78
2023/07/09 08:04:19;;;;;;;3.10;2.57;;;;;;;25.88;44.20;97312.69;5062517;28;20298;-80
2023/07/09 08:06:49;;;;;;;3.67;2.40;;;;;;;25.48;43.99;97290.25;5047967;28;20198;-78
2023/07/09 08:09:18;;;;;;;2.97;2.53;;;;;;;25.00;44.71;97295.97;5060486;28;20592;-78
2023/07/09 08:11:45;;;;;;;3.13;2.50;;;;;;;25.14;45.55;97309.69;5050394;28;20632;-80
2023/07/09 08:14:14;;;;;;;4.40;2.93;;;;;;;25.88;44.24;97308.22;5050521;28;20300;-78
2023/07/09 08:16:42;;;;;;;2.97;2.37;;;;;;;26.11;44.08;97308.53;5068274;28;20585;-80
2023/07/09 08:19:10;;;;;;;3.60;2.37;;;;;;;25.88;43.97;97307.41;5068160;28;20208;-77
2023/07/09 08:22:20;;;;;;;3.50;2.80;;;;;;;25.55;44.69;97312.53;5033238;28;20220;-80
2023/07/09 08:25:41;;;;;;;2.70;2.10;;;;;;;25.84;44.15;97307.69;5050816;28;20225;-80
2023/07/09 08:29:02;;;;;;;3.20;2.50;;;;;;;26.19;43.55;97303.25;5047230;28;20632;-79
2023/07/09 08:32:25;;;;;;;5.63;2.60;;;;;;;25.58;44.30;97308.69;5042446;28;20298;-81
2023/07/09 08:35:46;;;;;;;4.23;2.47;;;;;;;26.20;42.05;97316.38;5034315;28;20218;-79
2023/07/09 08:39:09;;;;;;;3.83;2.83;;;;;;;26.02;41.83;97296.16;5048939;28;20267;-80
2023/07/09 08:42:32;;;;;;;2.87;2.20;;;;;;;26.63;41.31;97304.69;5067016;28;20251;-79
2023/07/09 08:46:07;;;;;;;3.73;2.73;;;;;;;26.82;40.78;97315.06;5058590;28;20228;-79
2023/07/09 08:49:29;;;;;;;2.80;2.40;;;;;;;26.52;40.66;97303.19;5050847;28;20685;-79
2023/07/09 08:52:58;;;;;;;3.00;2.50;;;;;;;26.34;41.31;97310.44;5048971;28;20297;-79
2023/07/09 08:56:19;;;;;;;3.97;2.37;;;;;;;26.56;39.48;97311.69;5048611;28;20254;-80
2023/07/09 08:59:41;;;;;;;3.23;2.40;;;;;;;26.29;40.71;97290.69;5031372;28;20266;-78
2023/07/09 09:02:33;;;;;;;3.33;2.70;;;;;;;26.26;42.09;97296.28;5033541;28;20661;-81
2023/07/09 09:05:04;;;;;;;3.10;2.63;;;;;;;26.31;43.04;97272.75;5067699;28;20380;-82
2023/07/09 09:07:44;;;;;;;4.50;2.33;;;;;;;25.71;43.00;97283.44;5048980;28;20215;-80
2023/07/09 09:10:28;;;;;;;4.33;2.37;;;;;;;26.18;41.46;97297.09;5049157;28;20257;-84
2023/07/09 09:13:15;;;;;;;5.67;2.73;;;;;;;26.17;41.54;97298.09;5048851;28;20243;-80
2023/07/09 09:15:45;;;;;;;2.97;2.47;;;;;;;26.26;41.18;97280.34;5048391;28;20192;-82
2023/07/09 09:19:07;;;;;;;4.07;2.73;;;;;;;26.94;40.72;97297.81;5049428;28;20223;-80
2023/07/09 09:22:28;;;;;;;4.23;2.50;;;;;;;26.86;40.17;97305.78;5033852;28;20197;-80
2023/07/09 09:25:32;;;;;;;3.83;2.40;;;;;;;26.36;41.43;97303.13;5047952;28;20746;-80
2023/07/09 09:28:53;;;;;;;3.43;2.40;;;;;;;26.31;41.42;97288.69;5048479;28;20229;-80
2023/07/09 09:32:14;;;;;;;3.83;2.43;;;;;;;26.03;42.99;97300.50;5066481;28;20217;-77
2023/07/09 09:35:34;;;;;;;3.47;2.50;;;;;;;26.49;40.86;97302.69;5040039;28;20684;-78
2023/07/09 09:38:57;;;;;;;3.83;2.60;;;;;;;26.94;39.48;97292.47;5047819;28;20202;-83
2023/07/09 09:42:17;;;;;;;3.93;2.30;;;;;;;26.37;41.36;97304.81;5065794;28;20198;-77
2023/07/09 09:45:38;;;;;;;4.93;2.47;;;;;;;26.13;41.70;97306.56;5034411;28;20240;-77
2023/07/09 09:49:00;;;;;;;4.37;2.87;;;;;;;26.23;42.33;97293.97;5021855;28;20223;-80
2023/07/09 09:52:22;;;;;;;5.37;2.50;;;;;;;26.03;42.66;97311.13;5067674;28;20565;-85
2023/07/09 09:55:49;;;;;;;2.70;2.30;;;;;;;26.62;42.40;97313.69;5064403;28;20217;-84
2023/07/09 09:59:13;;;;;;;4.70;2.70;;;;;;;26.40;42.31;97293.00;5016392;28;20574;-80
2023/07/09 10:02:38;;;;;;;3.83;2.57;;;;;;;26.86;41.08;97316.41;5064778;28;20203;-81
2023/07/09 10:05:58;;;;;;;4.17;2.40;;;;;;;27.52;39.62;97320.75;5066012;28;20233;-80
2023/07/09 10:09:06;;;;;;;4.27;2.40;;;;;;;27.13;39.50;97329.41;5027742;28;20202;-78
2023/07/09 10:12:18;;;;;;;4.50;2.30;;;;;;;27.03;39.64;97312.78;5056280;28;20627;-83
2023/07/09 10:15:40;;;;;;;3.43;2.60;;;;;;;27.42;39.57;97302.31;5047310;28;20201;-80
2023/07/09 10:18:51;;;;;;;3.13;2.33;;;;;;;27.62;39.00;97310.75;4933370;28;20207;-83
2023/07/09 10:22:02;;;;;;;4.73;2.70;;;;;;;26.76;40.95;97286.50;4948036;28;20753;-77
2023/07/09 10:24:55;;;;;;;3.77;2.43;;;;;;;27.14;40.36;97293.00;5031219;28;20232;-77
2023/07/09 10:27:36;;;;;;;4.03;3.13;;;;;;;27.33;40.43;97298.78;5044798;28;20197;-77
2023/07/09 10:30:50;;;;;;;2.80;2.47;;;;;;;27.20;38.59;97309.09;5043104;28;20589;-78
2023/07/09 10:33:37;;;;;;;3.33;2.23;;;;;;;27.49;38.39;97302.47;5046654;28;20216;-79
2023/07/09 10:36:58;;;;;;;4.87;2.63;;;;;;;27.66;40.31;97296.94;5047600;28;20295;-78
2023/07/09 10:40:19;;;;;;;2.80;2.60;;;;;;;28.08;38.49;97286.88;5032995;28;20738;-78
2023/07/09 10:43:39;;;;;;;6.13;2.80;;;;;;;27.51;39.09;97268.53;5030381;28;20205;-78
2023/07/09 10:47:00;;;;;;;4.83;2.50;;;;;;;27.43;38.02;97297.84;5028887;28;20212;-81
2023/07/09 10:50:22;;;;;;;7.03;2.70;;;;;;;27.11;37.89;97295.97;5027546;28;20194;-77
2023/07/09 10:53:52;;;;;;;5.13;4.13;;;;;;;27.23;39.52;97290.16;5045070;28;20251;-78
2023/07/09 10:57:13;;;;;;;2.57;2.30;;;;;;;27.52;39.20;97280.84;5029151;28;20204;-79
2023/07/09 11:00:26;;;;;;;5.53;2.97;;;;;;;27.71;38.99;97286.63;5026576;28;20193;-78
2023/07/09 11:03:02;;;;;;;3.83;2.83;;;;;;;27.16;38.33;97238.63;4995139;28;20209;-76
2023/07/09 11:05:31;;;;;;;3.37;2.50;;;;;;;27.52;38.81;97279.00;5028313;28;20237;-82
2023/07/09 11:08:44;;;;;;;3.17;2.57;;;;;;;27.23;39.28;97287.50;5013443;28;20194;-79
2023/07/09 11:12:08;;;;;;;4.00;2.90;;;;;;;26.86;39.82;97273.88;5030583;28;20592;-76
2023/07/09 11:15:40;;;;;;;3.50;2.60;;;;;;;26.91;40.02;97287.50;5049056;28;20218;-81
2023/07/09 11:19:13;;;;;;;5.43;2.87;;;;;;;27.24;40.53;97283.81;5000187;28;20201;-80
2023/07/09 11:22:37;;;;;;;4.90;2.90;;;;;;;27.03;41.66;97283.53;5033668;28;20206;-77
2023/07/09 11:26:09;;;;;;;3.93;2.73;;;;;;;27.39;40.60;97287.50;5033031;28;20733;-78
2023/07/09 11:29:12;;;;;;;4.67;2.80;;;;;;;27.47;40.17;97315.94;5030498;28;20787;-82
2023/07/09 11:32:39;;;;;;;2.97;2.60;;;;;;;27.47;40.12;97293.84;5017131;28;20641;-78
2023/07/09 11:35:54;;;;;;;3.87;3.27;;;;;;;27.73;40.69;97289.13;5016213;28;20194;-77
2023/07/09 11:38:24;;;;;;;5.90;2.90;;;;;;;27.91;39.99;97266.59;5005584;28;20217;-77
2023/07/09 11:41:25;;;;;;;5.40;2.80;;;;;;;27.84;39.69;97281.59;5014296;28;20198;-77
2023/07/09 11:44:21;;;;;;;3.43;3.07;;;;;;;27.92;40.23;97262.09;5058978;28;20786;-79
2023/07/09 11:46:57;;;;;;;3.67;2.97;;;;;;;27.53;40.71;97266.53;5047264;28;20612;-79
2023/07/09 11:50:18;;;;;;;4.17;3.00;;;;;;;27.54;40.14;97262.88;5035468;28;20707;-80
2023/07/09 11:53:37;;;;;;;6.10;3.40;;;;;;;27.52;41.91;97265.72;4989508;28;20208;-81
2023/07/09 11:56:58;;;;;;;3.77;2.83;;;;;;;27.95;40.53;97270.56;4976050;28;20230;-82
2023/07/09 12:00:19;;;;;;;5.23;3.30;;;;;;;27.57;40.20;97254.56;4972779;28;20199;-80
2023/07/09 12:03:40;;;;;;;3.93;2.63;;;;;;;27.60;40.27;97262.19;4975326;28;20200;-79
2023/07/09 12:07:08;;;;;;;3.47;2.90;;;;;;;27.53;40.15;97240.78;4992237;28;20273;-80
2023/07/09 12:10:29;;;;;;;4.00;3.00;;;;;;;27.55;41.49;97267.22;5005996;28;20207;-78
2023/07/09 12:13:56;;;;;;;3.37;2.63;;;;;;;27.30;41.77;97264.56;5004671;28;20206;-82
2023/07/09 12:16:51;;;;;;;4.63;2.43;;;;;;;27.22;40.78;97253.91;4987128;28;20191;-82
2023/07/09 12:19:58;;;;;;;4.60;2.93;;;;;;;27.36;40.95;97239.13;4988989;28;20214;-79
2023/07/09 12:23:19;;;;;;;3.50;2.80;;;;;;;27.62;40.91;97247.72;4977545;28;20203;-80
2023/07/09 12:26:42;;;;;;;4.00;2.90;;;;;;;27.72;39.72;97239.56;5031787;28;20225;-77
2023/07/09 12:30:03;;;;;;;3.13;2.60;;;;;;;27.53;40.17;97239.94;5014975;28;20701;-80
2023/07/09 12:33:25;;;;;;;5.20;3.37;;;;;;;27.22;41.61;97229.97;5016163;28;20605;-83
2023/07/09 12:36:46;;;;;;;3.90;3.20;;;;;;;27.27;39.63;97218.84;5016702;28;20194;-83
2023/07/09 12:40:08;;;;;;;3.10;2.50;;;;;;;27.73;39.69;97244.69;5040386;28;20267;-83
2023/07/09 12:43:31;;;;;;;3.03;2.73;;;;;;;27.88;40.05;97242.16;5028464;28;20209;-82
2023/07/09 12:46:52;;;;;;;4.83;3.50;;;;;;;27.89;39.13;97244.63;5044428;28;20237;-81
2023/07/09 12:50:14;;;;;;;3.03;2.73;;;;;;;27.22;39.47;97237.13;5015155;28;20247;-79
2023/07/09 12:53:35;;;;;;;7.23;3.47;;;;;;;27.64;40.02;97236.88;5031713;28;20601;-82
2023/07/09 12:56:57;;;;;;;4.20;3.57;;;;;;;28.07;39.58;97223.94;5043901;28;20692;-83
2023/07/09 12:59:41;;;;;;;4.03;3.07;;;;;;;28.14;39.47;97229.41;5032121;28;20293;-81
2023/07/09 13:02:24;;;;;;;3.20;2.77;;;;;;;28.18;39.60;97217.41;5032645;28;20225;-82
2023/07/09 13:05:40;;;;;;;3.63;2.77;;;;;;;28.10;40.37;97225.44;5043964;28;20713;-81
2023/07/09 13:09:08;;;;;;;2.83;2.53;;;;;;;27.53;40.26;97136.16;5055143;28;20208;-77
2023/07/09 13:12:30;;;;;;;3.73;2.53;;;;;;;27.82;39.75;97208.22;5042156;28;20209;-77
2023/07/09 13:15:40;;;;;;;4.50;3.40;;;;;;;27.69;39.51;97213.28;5035155;28;20606;-79
2023/07/09 13:19:02;;;;;;;3.37;2.37;;;;;;;27.94;40.17;97212.16;5057835;28;20216;-79
2023/07/09 13:22:22;;;;;;;3.77;2.80;;;;;;;27.43;40.82;97231.31;5034065;28;20308;-80
2023/07/09 13:25:44;;;;;;;3.30;3.00;;;;;;;27.61;41.13;97219.47;5066963;28;20225;-82
2023/07/09 13:29:05;;;;;;;3.73;3.03;;;;;;;27.66;41.35;97213.59;5049927;28;20508;-80
2023/07/09 13:32:29;;;;;;;5.37;2.70;;;;;;;27.23;40.20;97222.81;5066743;28;20235;-80
2023/07/09 13:35:54;;;;;;;3.70;2.83;;;;;;;27.00;41.39;97221.84;5051016;28;20209;-79
2023/07/09 13:39:15;;;;;;;4.37;2.67;;;;;;;27.36;41.26;97224.03;5048257;28;20289;-81
2023/07/09 13:42:36;;;;;;;4.77;2.57;;;;;;;27.55;40.43;97233.44;5035967;28;20236;-79
2023/07/09 13:45:57;;;;;;;5.10;2.60;;;;;;;27.37;41.61;97225.66;5034474;28;20224;-81
2023/07/09 13:49:17;;;;;;;3.03;2.73;;;;;;;27.69;40.77;97218.59;5066264;28;20201;-80
2023/07/09 13:52:40;;;;;;;3.57;2.77;;;;;;;27.85;40.88;97205.22;5065885;28;20213;-79
2023/07/09 13:56:01;;;;;;;3.13;2.80;;;;;;;27.62;41.38;97218.44;5067235;28;20193;-82
2023/07/09 13:59:22;;;;;;;4.63;2.70;;;;;;;27.41;41.93;97230.66;5051089;28;20705;-82
2023/07/09 14:02:46;;;;;;;4.50;3.00;;;;;;;27.30;42.02;97235.31;5048603;28;20634;-81
2023/07/09 14:06:07;;;;;;;3.80;2.73;;;;;;;27.52;42.79;97232.94;5065826;28;20244;-83
2023/07/09 14:09:29;;;;;;;3.17;2.73;;;;;;;27.09;42.94;97248.28;5048267;28;20263;-79
2023/07/09 14:12:50;;;;;;;6.03;3.30;;;;;;;27.50;42.73;97226.97;5066055;28;20222;-81
2023/07/09 14:16:11;;;;;;;3.40;3.10;;;;;;;27.52;41.88;97222.28;5031023;28;20205;-80
2023/07/09 14:19:32;;;;;;;4.13;3.30;;;;;;;27.06;41.98;97200.75;5027904;28;20198;-79
2023/07/09 14:22:30;;;;;;;4.47;2.80;;;;;;;27.09;43.26;97226.19;5026965;28;20279;-80
2023/07/09 14:25:51;;;;;;;5.47;3.43;;;;;;;27.35;43.24;97218.84;5046543;28;20261;-83
2023/07/09 14:29:13;;;;;;;3.87;3.37;;;;;;;27.03;42.83;97226.84;5031067;28;20584;-82
2023/07/09 14:32:35;;;;;;;4.37;3.20;;;;;;;27.22;43.83;97216.66;5030969;28;20193;-83
2023/07/09 14:35:56;;;;;;;3.60;3.00;;;;;;;26.96;43.71;97213.38;5054278;28;20206;-80
2023/07/09 14:39:17;;;;;;;4.50;2.60;;;;;;;26.96;42.45;97241.78;5019429;28;20699;-81
2023/07/09 14:42:38;;;;;;;8.20;3.37;;;;;;;27.13;40.25;97201.75;5050285;28;20270;-82
2023/07/09 14:45:58;;;;;;;7.87;3.87;;;;;;;27.53;40.50;97224.81;5069247;28;20590;-84
2023/07/09 14:49:20;;;;;;;6.10;3.40;;;;;;;27.66;41.09;97221.59;5069007;28;20232;-81
2023/07/09 14:52:40;;;;;;;5.57;3.43;;;;;;;27.70;41.54;97228.25;5068779;28;20680;-83
2023/07/09 14:56:01;;;;;;;5.13;3.20;;;;;;;27.38;41.20;97226.50;5051482;28;20266;-82
2023/07/09 14:59:20;;;;;;;4.87;3.30;;;;;;;27.29;40.42;97212.34;5053708;28;20274;-83
2023/07/09 15:02:54;;;;;;;4.17;3.00;;;;;;;27.55;40.43;97240.59;5051253;28;20224;-80
2023/07/09 15:06:16;;;;;;;3.97;3.40;;;;;;;27.61;41.05;97224.78;5035909;28;20233;-83
2023/07/09 15:09:51;;;;;;;4.13;3.23;;;;;;;27.48;41.00;97232.47;5052919;28;20209;-83
2023/07/09 15:13:12;;;;;;;3.50;3.03;;;;;;;27.33;41.84;97223.47;5050892;28;20193;-81
2023/07/09 15:16:29;;;;;;;4.33;3.30;;;;;;;27.21;41.88;97225.66;5036183;28;20662;-81
2023/07/09 15:18:58;;;;;;;5.07;3.47;;;;;;;27.26;42.22;97218.03;5050898;28;20197;-82
2023/07/09 15:22:08;;;;;;;3.40;2.83;;;;;;;27.53;41.82;97231.94;5019426;28;20201;-82
2023/07/09 15:24:50;;;;;;;4.10;2.80;;;;;;;27.81;41.45;97249.16;5037328;28;20295;-83
2023/07/09 15:28:11;;;;;;;4.03;2.90;;;;;;;27.50;41.59;97234.94;5035872;28;20205;-83